Terminal Aerodrome Forecast
Issued by NWS

Home | Current Version | Previous Version | Text Only | Print | Product List | Glossary Off
Versions: 1 2 3 4 5 6 7 8 9 10 11 12 13 14 15 16 17 18

027
FTUS43 KGRB 262328
TAFAUW
TAF
KAUW 262328Z 2700/2724 27012G18KT P6SM OVC050
     FM271200 28012G18KT P6SM BKN025 OVC040
     FM271600 29014G21KT P6SM -SHRA OVC015
     FM271900 29011G18KT 5SM -SHRA BR OVC012
      TEMPO 2722/2724 BKN006=

USA.gov is the U.S. government's official web portal to all federal, state and local government web resources and services.